createdAt,value
2022-12-29T00:00:06.589Z,11.00
2022-12-29T00:02:33.702Z,11.00
2022-12-29T00:05:00.608Z,11.00
2022-12-29T00:07:27.423Z,11.00
2022-12-29T00:09:54.179Z,11.00
2022-12-29T00:12:20.976Z,11.00
2022-12-29T00:15:06.366Z,11.00
2022-12-29T00:17:33.791Z,11.00
2022-12-29T00:20:19.288Z,11.10
2022-12-29T00:23:04.801Z,11.10
2022-12-29T00:25:50.443Z,11.10
2022-12-29T00:28:35.935Z,11.20
2022-12-29T00:31:21.447Z,11.20
2022-12-29T00:34:06.661Z,11.10
2022-12-29T00:36:40.223Z,11.20
2022-12-29T00:39:38.227Z,11.20
2022-12-29T00:42:28.594Z,11.20
2022-12-29T00:44:55.491Z,11.30
2022-12-29T00:47:22.290Z,11.30
2022-12-29T00:49:49.043Z,11.40
2022-12-29T00:52:15.894Z,11.30
2022-12-29T00:54:45.908Z,11.30
2022-12-29T00:57:13.506Z,11.30
2022-12-29T00:59:42.061Z,11.30
2022-12-29T01:02:10.192Z,11.20
2022-12-29T01:04:37.356Z,11.30
2022-12-29T01:07:04.388Z,11.30
2022-12-29T01:09:51.145Z,11.30
2022-12-29T01:12:18.082Z,11.20
2022-12-29T01:14:45.141Z,11.30
2022-12-29T01:17:11.855Z,11.10
2022-12-29T01:19:38.573Z,11.10
2022-12-29T01:22:05.403Z,11.00
2022-12-29T01:24:32.292Z,10.90
2022-12-29T01:26:59.104Z,10.80
2022-12-29T01:29:25.898Z,10.80
2022-12-29T01:31:52.744Z,10.70
2022-12-29T01:34:19.568Z,10.70
2022-12-29T01:36:46.395Z,10.60
2022-12-29T01:39:13.183Z,10.70
2022-12-29T01:41:41.415Z,10.60
2022-12-29T01:44:46.817Z,10.60
2022-12-29T01:47:19.815Z,10.60
2022-12-29T01:49:46.590Z,10.50
2022-12-29T01:52:13.607Z,10.40
2022-12-29T01:54:50.085Z,10.40
2022-12-29T01:57:23.547Z,10.50
2022-12-29T01:59:57.345Z,10.40
2022-12-29T02:02:25.447Z,10.40
2022-12-29T02:04:56.234Z,10.40
2022-12-29T02:07:27.396Z,10.40
2022-12-29T02:09:56.201Z,10.50
2022-12-29T02:12:24.736Z,10.50
2022-12-29T02:14:56.013Z,10.30
2022-12-29T02:17:42.645Z,10.30
2022-12-29T02:20:53.010Z,10.20
2022-12-29T02:23:43.029Z,10.10
2022-12-29T02:26:18.891Z,10.00
2022-12-29T02:29:22.819Z,9.90
2022-12-29T02:32:11.238Z,9.80
2022-12-29T02:35:07.077Z,9.80
2022-12-29T02:37:55.787Z,9.70
2022-12-29T02:40:58.113Z,9.70
2022-12-29T02:43:35.593Z,9.60
2022-12-29T02:46:20.672Z,9.60
2022-12-29T02:48:55.505Z,9.60
2022-12-29T02:51:29.685Z,9.60
2022-12-29T02:54:16.022Z,9.70
2022-12-29T02:56:43.929Z,9.60
2022-12-29T02:59:11.749Z,9.70
2022-12-29T03:02:18.171Z,9.60
2022-12-29T03:05:06.796Z,9.40
2022-12-29T03:07:57.292Z,9.40
2022-12-29T03:10:45.676Z,9.40
2022-12-29T03:13:55.960Z,9.30
2022-12-29T03:16:46.468Z,9.20
2022-12-29T03:19:40.006Z,9.10
2022-12-29T03:22:28.285Z,9.10
2022-12-29T03:25:18.838Z,9.00
2022-12-29T03:27:56.883Z,9.10
2022-12-29T03:30:24.618Z,9.10
2022-12-29T03:32:56.550Z,9.20
2022-12-29T03:35:28.507Z,9.30
2022-12-29T03:38:15.007Z,9.20
2022-12-29T03:40:45.824Z,9.30
2022-12-29T03:43:13.713Z,9.30
2022-12-29T03:45:41.151Z,9.40
2022-12-29T03:48:07.955Z,9.50
2022-12-29T03:50:34.889Z,9.50
2022-12-29T03:53:01.628Z,9.60
2022-12-29T03:55:28.591Z,9.60
2022-12-29T03:57:55.368Z,9.70
2022-12-29T04:00:22.146Z,9.70
2022-12-29T04:02:48.960Z,9.70
2022-12-29T04:05:15.865Z,9.60
2022-12-29T04:07:42.692Z,9.60
2022-12-29T04:10:09.800Z,9.50
2022-12-29T04:12:36.657Z,9.60
2022-12-29T04:15:04.078Z,9.50
2022-12-29T04:17:30.867Z,9.50
2022-12-29T04:20:17.608Z,9.50
2022-12-29T04:22:44.802Z,9.50
2022-12-29T04:25:11.923Z,9.50
2022-12-29T04:27:38.844Z,9.40
2022-12-29T04:30:06.181Z,9.40
2022-12-29T04:32:33.027Z,9.40
2022-12-29T04:34:59.792Z,9.40
2022-12-29T04:37:26.553Z,9.40
2022-12-29T04:39:53.319Z,9.30
2022-12-29T04:42:20.121Z,9.30
2022-12-29T04:44:46.864Z,9.40
2022-12-29T04:47:13.618Z,9.50
2022-12-29T04:49:40.389Z,9.60
2022-12-29T04:52:09.276Z,9.70
2022-12-29T04:54:36.134Z,9.70
2022-12-29T04:57:02.972Z,9.70
2022-12-29T04:59:29.745Z,9.80
2022-12-29T05:01:56.670Z,9.80
2022-12-29T05:04:23.525Z,9.80
2022-12-29T05:06:50.382Z,9.80
2022-12-29T05:09:17.184Z,9.80
2022-12-29T05:11:45.235Z,9.80
2022-12-29T05:14:12.070Z,9.80
2022-12-29T05:16:38.844Z,9.90
2022-12-29T05:19:05.689Z,9.90
2022-12-29T05:21:32.495Z,9.90
2022-12-29T05:24:00.191Z,10.00
2022-12-29T05:26:27.330Z,10.00
2022-12-29T05:28:54.100Z,9.90
2022-12-29T05:31:21.042Z,10.10
2022-12-29T05:33:47.831Z,10.00
2022-12-29T05:36:14.627Z,10.00
2022-12-29T05:38:41.358Z,10.10
2022-12-29T05:41:08.179Z,10.10
2022-12-29T05:43:35.007Z,10.10
2022-12-29T05:46:02.648Z,10.10
2022-12-29T05:48:34.416Z,10.10
2022-12-29T05:51:04.482Z,10.10
2022-12-29T05:53:31.568Z,10.10
2022-12-29T05:55:58.381Z,10.10
2022-12-29T05:58:25.166Z,10.10
2022-12-29T06:00:52.450Z,10.10
2022-12-29T06:03:19.310Z,10.10
2022-12-29T06:05:47.197Z,10.10
2022-12-29T06:08:14.332Z,10.10
2022-12-29T06:10:41.137Z,10.10
2022-12-29T06:13:07.995Z,10.10
2022-12-29T06:15:35.054Z,10.10
2022-12-29T06:18:02.000Z,10.10
2022-12-29T06:20:29.373Z,10.00
2022-12-29T06:22:56.160Z,10.00
2022-12-29T06:25:22.948Z,10.00
2022-12-29T06:27:49.730Z,10.00
2022-12-29T06:30:18.531Z,10.00
2022-12-29T06:32:45.635Z,10.00
2022-12-29T06:35:12.585Z,10.00
2022-12-29T06:37:39.333Z,10.00
2022-12-29T06:40:06.770Z,10.00
2022-12-29T06:42:33.960Z,10.00
2022-12-29T06:45:01.811Z,10.00
2022-12-29T06:47:28.745Z,10.10
2022-12-29T06:49:55.579Z,10.10
2022-12-29T06:52:22.494Z,10.10
2022-12-29T06:54:49.259Z,10.10
2022-12-29T06:57:15.975Z,10.20
2022-12-29T06:59:43.245Z,10.10
2022-12-29T07:02:12.454Z,10.30
2022-12-29T07:04:39.409Z,10.20
2022-12-29T07:07:06.195Z,10.20
2022-12-29T07:09:33.344Z,10.20
2022-12-29T07:12:00.354Z,10.20
2022-12-29T07:14:27.081Z,10.20
2022-12-29T07:16:54.062Z,10.20
2022-12-29T07:19:21.178Z,10.10
2022-12-29T07:21:47.927Z,10.10
2022-12-29T07:24:14.766Z,10.10
2022-12-29T07:26:42.491Z,10.10
2022-12-29T07:29:09.232Z,10.10
2022-12-29T07:31:36.099Z,10.10
2022-12-29T07:34:03.014Z,10.20
2022-12-29T07:36:34.399Z,10.20
2022-12-29T07:39:01.746Z,10.20
2022-12-29T07:41:28.569Z,10.10
2022-12-29T07:43:55.334Z,10.00
2022-12-29T07:46:55.923Z,10.10
2022-12-29T07:49:08.857Z,10.10
2022-12-29T07:51:35.624Z,10.10
2022-12-29T07:54:02.511Z,10.10
2022-12-29T07:56:29.327Z,10.10
2022-12-29T07:58:56.075Z,10.10
2022-12-29T08:01:24.473Z,10.10
2022-12-29T08:03:57.064Z,10.00
2022-12-29T08:06:24.487Z,10.10
2022-12-29T08:08:51.330Z,10.10
2022-12-29T08:11:18.116Z,10.10
2022-12-29T08:13:44.888Z,10.20
2022-12-29T08:16:11.733Z,10.10
2022-12-29T08:18:38.556Z,10.10
2022-12-29T08:21:05.593Z,10.10
2022-12-29T08:23:32.922Z,10.00
2022-12-29T08:26:05.183Z,10.00
2022-12-29T08:28:32.541Z,10.00
2022-12-29T08:31:01.011Z,10.10
2022-12-29T08:33:28.712Z,10.10
2022-12-29T08:36:07.753Z,10.10
2022-12-29T08:38:34.619Z,10.10
2022-12-29T08:41:04.653Z,10.10
2022-12-29T08:43:31.480Z,10.00
2022-12-29T08:46:01.399Z,10.00
2022-12-29T08:48:28.338Z,10.10
2022-12-29T08:50:55.391Z,10.10
2022-12-29T08:53:22.181Z,10.00
2022-12-29T08:56:02.376Z,10.10
2022-12-29T08:58:31.185Z,10.10
2022-12-29T09:00:59.232Z,10.10
2022-12-29T09:03:54.953Z,10.10
2022-12-29T09:06:14.175Z,10.10
2022-12-29T09:08:41.694Z,10.10
2022-12-29T09:11:23.796Z,10.10
2022-12-29T09:13:51.707Z,10.00
2022-12-29T09:16:18.903Z,10.00
2022-12-29T09:18:46.128Z,10.00
2022-12-29T09:21:13.468Z,10.00
2022-12-29T09:23:41.545Z,10.10
2022-12-29T09:26:09.059Z,10.10
2022-12-29T09:28:35.937Z,10.10
2022-12-29T09:31:02.789Z,10.00
2022-12-29T09:33:29.846Z,10.00
2022-12-29T09:35:58.744Z,10.00
2022-12-29T09:38:27.597Z,9.90
2022-12-29T09:40:57.350Z,10.00
2022-12-29T09:43:45.396Z,10.00
2022-12-29T09:46:29.880Z,10.00
2022-12-29T09:49:24.230Z,10.10
2022-12-29T09:51:54.795Z,10.10
2022-12-29T09:54:43.055Z,10.20
2022-12-29T09:57:26.525Z,10.30
2022-12-29T10:00:05.199Z,10.20
2022-12-29T10:02:45.047Z,10.20
2022-12-29T10:05:23.813Z,10.20
2022-12-29T10:08:03.871Z,10.20
2022-12-29T10:10:39.494Z,10.10
2022-12-29T10:13:40.782Z,10.10
2022-12-29T10:16:20.457Z,10.10
2022-12-29T10:19:01.783Z,10.10
2022-12-29T10:21:47.104Z,10.10
2022-12-29T10:24:14.235Z,10.10
2022-12-29T10:26:43.836Z,10.10
2022-12-29T10:29:22.933Z,10.10
2022-12-29T10:31:59.277Z,10.10
2022-12-29T10:34:34.543Z,10.10
2022-12-29T10:37:15.027Z,10.10
2022-12-29T10:39:50.495Z,10.10
2022-12-29T10:42:48.329Z,10.10
2022-12-29T10:45:18.453Z,10.10
2022-12-29T10:48:00.840Z,10.10
2022-12-29T10:50:30.075Z,10.10
2022-12-29T10:53:03.593Z,10.10
2022-12-29T10:55:33.289Z,10.10
2022-12-29T10:58:05.888Z,10.10
2022-12-29T11:00:33.770Z,10.10
2022-12-29T11:03:27.951Z,10.10
2022-12-29T11:06:02.395Z,10.10
2022-12-29T11:08:37.246Z,10.20
2022-12-29T11:11:09.943Z,10.20
2022-12-29T11:13:51.673Z,10.20
2022-12-29T11:16:31.774Z,10.20
2022-12-29T11:18:59.138Z,10.20
2022-12-29T11:21:28.225Z,10.30
2022-12-29T11:24:00.983Z,10.30
2022-12-29T11:26:34.068Z,10.30
2022-12-29T11:29:07.842Z,10.30
2022-12-29T11:31:56.125Z,10.30
2022-12-29T11:34:34.857Z,10.30
2022-12-29T11:37:10.796Z,10.20
2022-12-29T11:39:58.377Z,10.20
2022-12-29T11:42:37.846Z,10.10
2022-12-29T11:45:11.402Z,10.00
2022-12-29T11:47:38.092Z,9.90
2022-12-29T11:50:07.975Z,9.90
2022-12-29T11:52:38.920Z,9.90
2022-12-29T11:55:08.092Z,9.90
2022-12-29T11:57:36.249Z,10.00
2022-12-29T12:00:15.931Z,10.00
2022-12-29T12:02:49.222Z,10.00
2022-12-29T12:05:41.180Z,10.00
2022-12-29T12:08:40.846Z,9.90
2022-12-29T12:11:18.477Z,9.80
2022-12-29T12:14:11.916Z,9.90
2022-12-29T12:16:43.129Z,9.80
2022-12-29T12:19:25.432Z,9.90
2022-12-29T12:22:02.031Z,10.00
2022-12-29T12:24:45.467Z,9.90
2022-12-29T12:27:32.712Z,9.90
2022-12-29T12:30:02.354Z,9.90
2022-12-29T12:32:45.042Z,9.90
2022-12-29T12:35:22.409Z,9.80
2022-12-29T12:38:10.210Z,9.70
2022-12-29T12:40:48.886Z,9.70
2022-12-29T12:43:42.471Z,9.70
2022-12-29T12:46:40.006Z,9.70
2022-12-29T12:49:19.537Z,9.80
2022-12-29T12:51:59.479Z,9.70
2022-12-29T12:54:49.957Z,9.90
2022-12-29T12:57:19.777Z,9.80
2022-12-29T13:00:08.285Z,9.90
2022-12-29T13:02:56.702Z,9.80
2022-12-29T13:05:33.244Z,9.90
2022-12-29T13:08:44.958Z,9.90
2022-12-29T13:11:41.901Z,9.90
2022-12-29T13:14:22.848Z,9.80
2022-12-29T13:17:03.120Z,9.80
2022-12-29T13:19:41.067Z,9.80
2022-12-29T13:22:29.425Z,9.80
2022-12-29T13:25:14.079Z,9.80
2022-12-29T13:28:06.839Z,9.70
2022-12-29T13:30:53.848Z,9.60
2022-12-29T13:33:38.702Z,9.60
2022-12-29T13:36:22.764Z,9.70
2022-12-29T13:39:14.794Z,9.60
2022-12-29T13:41:51.882Z,9.60
2022-12-29T13:44:31.853Z,9.50
2022-12-29T13:47:03.909Z,9.60
2022-12-29T13:49:30.925Z,9.60
2022-12-29T13:52:00.405Z,9.60
2022-12-29T13:54:53.438Z,9.60
2022-12-29T13:57:52.439Z,9.70
2022-12-29T14:00:27.121Z,9.60
2022-12-29T14:03:24.920Z,9.60
2022-12-29T14:06:32.713Z,9.60
2022-12-29T14:09:00.428Z,9.50
2022-12-29T14:11:36.859Z,9.50
2022-12-29T14:14:25.743Z,9.50
2022-12-29T14:16:53.901Z,9.60
2022-12-29T14:19:35.873Z,9.60
2022-12-29T14:22:06.596Z,9.60
2022-12-29T14:24:35.998Z,9.50
2022-12-29T14:27:22.843Z,9.50
2022-12-29T14:29:51.147Z,9.70
2022-12-29T14:32:26.686Z,9.70
2022-12-29T14:34:56.028Z,9.70
2022-12-29T14:37:28.685Z,9.70
2022-12-29T14:40:19.098Z,9.70
2022-12-29T14:42:48.821Z,9.70
2022-12-29T14:45:15.560Z,9.70
2022-12-29T14:47:48.498Z,9.70
2022-12-29T14:50:19.550Z,9.70
2022-12-29T14:53:03.619Z,9.80
2022-12-29T14:55:42.257Z,9.70
2022-12-29T14:58:24.077Z,9.50
2022-12-29T15:00:51.327Z,9.40
2022-12-29T15:03:20.868Z,9.40
2022-12-29T15:05:50.855Z,9.40
2022-12-29T15:08:23.860Z,9.40
2022-12-29T15:11:03.263Z,9.10
2022-12-29T15:13:38.698Z,8.80
2022-12-29T15:16:21.334Z,8.20
2022-12-29T15:18:48.105Z,7.90
2022-12-29T15:21:17.207Z,7.80
2022-12-29T15:23:46.173Z,7.70
2022-12-29T15:26:21.993Z,7.60
2022-12-29T15:28:49.822Z,7.60
2022-12-29T15:31:18.098Z,7.60
2022-12-29T15:33:48.557Z,7.50
2022-12-29T15:36:27.765Z,7.60
2022-12-29T15:38:54.951Z,7.60
2022-12-29T15:42:05.229Z,7.70
2022-12-29T15:44:44.539Z,7.70
2022-12-29T15:47:18.847Z,7.70
2022-12-29T15:49:49.363Z,7.70
2022-12-29T15:52:20.899Z,7.70
2022-12-29T15:54:50.840Z,7.70
2022-12-29T15:57:28.713Z,7.70
2022-12-29T15:59:55.625Z,7.70
2022-12-29T16:02:26.871Z,7.80
2022-12-29T16:05:17.652Z,7.70
2022-12-29T16:07:57.195Z,7.70
2022-12-29T16:10:34.537Z,7.70
2022-12-29T16:13:25.720Z,7.50
2022-12-29T16:16:00.619Z,7.40
2022-12-29T16:18:30.937Z,7.50
2022-12-29T16:20:58.400Z,7.50
2022-12-29T16:23:30.598Z,7.40
2022-12-29T16:25:58.962Z,7.60
2022-12-29T16:28:55.299Z,7.60
2022-12-29T16:31:33.212Z,7.60
2022-12-29T16:34:11.009Z,7.70
2022-12-29T16:36:53.624Z,7.70
2022-12-29T16:39:24.770Z,7.70
2022-12-29T16:41:52.244Z,7.80
2022-12-29T16:44:24.400Z,7.80
2022-12-29T16:47:13.071Z,7.90
2022-12-29T16:49:43.115Z,7.70
2022-12-29T16:52:35.287Z,7.70
2022-12-29T16:55:02.833Z,7.60
2022-12-29T16:57:32.595Z,7.60
2022-12-29T17:00:04.603Z,7.60
2022-12-29T17:02:33.386Z,7.70
2022-12-29T17:05:00.475Z,7.60
2022-12-29T17:07:28.918Z,7.70
2022-12-29T17:09:55.735Z,7.70
2022-12-29T17:12:26.268Z,7.60
2022-12-29T17:14:58.725Z,7.60
2022-12-29T17:17:36.233Z,7.70
2022-12-29T17:20:08.131Z,7.70
2022-12-29T17:22:35.854Z,7.70
2022-12-29T17:25:03.739Z,7.70
2022-12-29T17:27:32.886Z,7.70
2022-12-29T17:30:04.881Z,7.80
2022-12-29T17:32:33.043Z,8.00
2022-12-29T17:34:59.816Z,7.80
2022-12-29T17:37:33.140Z,7.80
2022-12-29T17:40:00.271Z,7.90
2022-12-29T17:42:27.263Z,8.00
2022-12-29T17:44:54.072Z,7.90
2022-12-29T17:47:20.866Z,7.90
2022-12-29T17:49:47.775Z,7.80
2022-12-29T17:52:16.590Z,7.90
2022-12-29T17:54:53.512Z,7.90
2022-12-29T17:57:21.828Z,7.90
2022-12-29T17:59:48.788Z,7.90
2022-12-29T18:02:32.460Z,7.80
2022-12-29T18:04:59.420Z,7.70
2022-12-29T18:07:35.563Z,7.80
2022-12-29T18:10:03.894Z,7.80
2022-12-29T18:12:38.169Z,7.70
2022-12-29T18:15:05.909Z,7.70
2022-12-29T18:17:32.714Z,7.70
2022-12-29T18:19:59.443Z,7.70
2022-12-29T18:22:29.093Z,7.60
2022-12-29T18:24:55.995Z,7.60
2022-12-29T18:27:22.859Z,7.60
2022-12-29T18:29:49.919Z,7.60
2022-12-29T18:32:17.498Z,7.60
2022-12-29T18:34:44.631Z,7.70
2022-12-29T18:37:11.940Z,7.70
2022-12-29T18:39:39.137Z,7.70
2022-12-29T18:42:06.622Z,7.80
2022-12-29T18:44:34.019Z,7.80
2022-12-29T18:47:01.337Z,7.70
2022-12-29T18:49:28.396Z,7.60
2022-12-29T18:51:55.266Z,7.70
2022-12-29T18:54:30.004Z,7.80
2022-12-29T18:56:57.453Z,7.80
2022-12-29T18:59:24.776Z,7.80
2022-12-29T19:01:52.187Z,7.80
2022-12-29T19:04:19.029Z,7.80
2022-12-29T19:06:45.919Z,7.80
2022-12-29T19:09:13.722Z,7.80
2022-12-29T19:11:40.850Z,7.90
2022-12-29T19:14:15.023Z,7.90
2022-12-29T19:16:41.955Z,7.90
2022-12-29T19:19:15.378Z,7.80
2022-12-29T19:21:42.541Z,7.80
2022-12-29T19:24:09.290Z,7.80
2022-12-29T19:26:38.671Z,7.90
2022-12-29T19:29:14.995Z,7.90
2022-12-29T19:31:41.933Z,8.00
2022-12-29T19:34:09.645Z,7.90
2022-12-29T19:36:36.390Z,7.80
2022-12-29T19:39:03.279Z,7.70
2022-12-29T19:41:30.071Z,7.60
2022-12-29T19:43:56.864Z,7.60
2022-12-29T19:46:24.576Z,7.70
2022-12-29T19:48:52.160Z,7.80
2022-12-29T19:51:19.346Z,7.70
2022-12-29T19:53:46.784Z,7.80
2022-12-29T19:56:14.628Z,7.90
2022-12-29T19:58:47.006Z,7.90
2022-12-29T20:01:20.330Z,7.90
2022-12-29T20:03:47.652Z,7.90
2022-12-29T20:06:14.618Z,7.90
2022-12-29T20:08:41.830Z,7.90
2022-12-29T20:11:13.122Z,7.90
2022-12-29T20:13:41.459Z,7.80
2022-12-29T20:16:11.795Z,7.90
2022-12-29T20:18:39.215Z,7.90
2022-12-29T20:21:08.959Z,7.90
2022-12-29T20:23:37.574Z,7.90
2022-12-29T20:26:05.016Z,7.90
2022-12-29T20:28:32.264Z,7.90
2022-12-29T20:31:06.368Z,7.90
2022-12-29T20:33:34.392Z,7.90
2022-12-29T20:36:16.876Z,7.90
2022-12-29T20:38:44.846Z,7.90
2022-12-29T20:41:13.599Z,7.90
2022-12-29T20:43:41.469Z,7.80
2022-12-29T20:46:08.424Z,7.90
2022-12-29T20:48:35.649Z,7.90
2022-12-29T20:51:02.667Z,8.00
2022-12-29T20:53:31.682Z,7.90
2022-12-29T20:56:08.466Z,7.80
2022-12-29T20:58:47.137Z,7.80
2022-12-29T21:01:24.807Z,7.80
2022-12-29T21:03:51.675Z,7.70
2022-12-29T21:06:19.931Z,7.70
2022-12-29T21:08:48.634Z,7.70
2022-12-29T21:11:15.844Z,7.70
2022-12-29T21:13:42.738Z,7.70
2022-12-29T21:16:12.758Z,7.80
2022-12-29T21:18:39.748Z,7.80
2022-12-29T21:21:09.072Z,7.70
2022-12-29T21:23:39.156Z,7.80
2022-12-29T21:26:17.011Z,7.70
2022-12-29T21:28:44.414Z,7.70
2022-12-29T21:31:29.296Z,7.60
2022-12-29T21:33:57.651Z,7.60
2022-12-29T21:36:24.732Z,7.60
2022-12-29T21:38:51.747Z,7.60
2022-12-29T21:41:18.686Z,7.70
2022-12-29T21:44:22.143Z,7.60
2022-12-29T21:46:48.982Z,7.60
2022-12-29T21:49:16.459Z,7.50
2022-12-29T21:51:53.597Z,7.60
2022-12-29T21:54:48.883Z,7.60
2022-12-29T21:57:36.715Z,7.50
2022-12-29T22:00:25.379Z,7.50
2022-12-29T22:03:18.315Z,7.50
2022-12-29T22:06:08.279Z,7.40
2022-12-29T22:08:53.849Z,7.40
2022-12-29T22:11:39.298Z,7.30
2022-12-29T22:14:06.867Z,7.40
2022-12-29T22:16:33.672Z,7.30
2022-12-29T22:19:00.420Z,7.30
2022-12-29T22:21:27.193Z,7.40
2022-12-29T22:23:54.015Z,7.40
2022-12-29T22:26:20.783Z,7.30
2022-12-29T22:28:48.197Z,7.30
2022-12-29T22:31:29.049Z,7.40
2022-12-29T22:34:01.529Z,7.40
2022-12-29T22:36:29.843Z,7.40
2022-12-29T22:38:56.754Z,7.40
2022-12-29T22:41:23.889Z,7.40
2022-12-29T22:43:50.986Z,7.30
2022-12-29T22:46:17.920Z,7.40
2022-12-29T22:48:44.774Z,7.40
2022-12-29T22:51:11.596Z,7.40
2022-12-29T22:53:39.530Z,7.20
2022-12-29T22:56:11.669Z,7.30
2022-12-29T22:58:46.892Z,7.30
2022-12-29T23:01:16.220Z,7.30
2022-12-29T23:03:43.973Z,7.30
2022-12-29T23:06:16.334Z,7.20
2022-12-29T23:08:43.976Z,7.20
2022-12-29T23:11:12.545Z,7.20
2022-12-29T23:13:41.698Z,7.20
2022-12-29T23:16:08.653Z,7.30
2022-12-29T23:18:36.332Z,7.30
2022-12-29T23:21:03.382Z,7.30
2022-12-29T23:23:49.704Z,7.30
2022-12-29T23:26:18.647Z,7.30
2022-12-29T23:28:45.775Z,7.20
2022-12-29T23:31:12.881Z,7.30
2022-12-29T23:33:39.945Z,7.30
2022-12-29T23:36:07.471Z,7.30
2022-12-29T23:38:34.590Z,7.30
2022-12-29T23:41:01.687Z,7.30
2022-12-29T23:43:28.612Z,7.30
2022-12-29T23:45:55.383Z,7.30
2022-12-29T23:48:22.825Z,7.30
2022-12-29T23:50:49.545Z,7.20
2022-12-29T23:53:16.859Z,7.30
2022-12-29T23:55:44.490Z,7.40
2022-12-29T23:58:11.647Z,7.40
